createdAt,value
2023-03-31T00:02:30.088Z,95691.31
2023-03-31T00:05:18.307Z,95674.91
2023-03-31T00:08:04.685Z,95661.31
2023-03-31T00:10:50.616Z,95675.31
2023-03-31T00:13:37.004Z,95664.13
2023-03-31T00:16:23.452Z,95674.75
2023-03-31T00:19:27.818Z,95666.78
2023-03-31T00:22:15.079Z,95686.00
2023-03-31T00:25:01.018Z,95692.28
2023-03-31T00:27:47.145Z,95698.00
2023-03-31T00:30:33.269Z,95693.22
2023-03-31T00:33:19.375Z,95694.91
2023-03-31T00:36:10.020Z,95680.38
2023-03-31T00:39:02.610Z,95688.00
2023-03-31T00:41:49.577Z,95693.50
2023-03-31T00:44:37.821Z,95675.19
2023-03-31T00:47:23.658Z,95671.00
2023-03-31T00:50:18.895Z,95673.91
2023-03-31T00:53:14.685Z,95669.59
2023-03-31T00:56:07.909Z,95669.41
2023-03-31T00:58:59.786Z,95666.00
2023-03-31T01:01:47.025Z,95661.00
2023-03-31T01:04:39.833Z,95667.31
2023-03-31T01:07:38.117Z,95663.59
2023-03-31T01:10:23.927Z,95657.19
2023-03-31T01:13:15.061Z,95664.31
2023-03-31T01:16:01.369Z,95675.19
2023-03-31T01:18:49.814Z,95665.59
2023-03-31T01:21:53.829Z,95668.38
2023-03-31T01:25:02.338Z,95664.78
2023-03-31T01:28:19.764Z,95668.16
2023-03-31T01:31:44.265Z,95675.34
2023-03-31T01:35:09.629Z,95683.00
2023-03-31T01:38:39.415Z,95672.88
2023-03-31T01:41:40.765Z,95673.28
2023-03-31T01:44:29.777Z,95681.22
2023-03-31T01:47:44.590Z,95675.41
2023-03-31T01:50:40.089Z,95674.09
2023-03-31T01:53:41.804Z,95664.81
2023-03-31T01:56:35.189Z,95667.09
2023-03-31T01:59:41.316Z,95670.22
2023-03-31T02:02:31.662Z,95673.22
2023-03-31T02:05:21.314Z,95670.38
2023-03-31T02:08:23.291Z,95656.19
2023-03-31T02:11:10.403Z,95645.41
2023-03-31T02:13:56.880Z,95652.03
2023-03-31T02:16:47.446Z,95662.97
2023-03-31T02:19:39.738Z,95661.94
2023-03-31T02:22:27.060Z,95662.25
2023-03-31T02:25:15.906Z,95663.44
2023-03-31T02:28:15.755Z,95663.28
2023-03-31T02:31:06.882Z,95671.19
2023-03-31T02:33:53.291Z,95663.72
2023-03-31T02:36:41.309Z,95662.13
2023-03-31T02:39:31.198Z,95656.25
2023-03-31T02:42:20.137Z,95665.16
2023-03-31T02:45:54.537Z,95665.22
2023-03-31T02:48:50.534Z,95669.03
2023-03-31T02:51:42.195Z,95663.56
2023-03-31T02:55:31.868Z,95674.84
2023-03-31T02:58:44.950Z,95664.09
2023-03-31T03:02:58.821Z,95665.16
2023-03-31T03:05:58.967Z,95665.16
2023-03-31T03:09:37.778Z,95652.88
2023-03-31T03:12:45.547Z,95647.00
2023-03-31T03:15:37.403Z,95651.38
2023-03-31T03:18:23.320Z,95640.38
2023-03-31T03:21:09.414Z,95637.72
2023-03-31T03:23:55.617Z,95642.91
2023-03-31T03:26:41.627Z,95642.91
2023-03-31T03:29:27.774Z,95647.25
2023-03-31T03:32:13.795Z,95645.63
2023-03-31T03:35:03.520Z,95643.00
2023-03-31T03:37:49.219Z,95638.19
2023-03-31T03:40:35.276Z,95635.53
2023-03-31T03:43:21.064Z,95639.84
2023-03-31T03:46:07.062Z,95638.03
2023-03-31T03:48:53.499Z,95630.25
2023-03-31T03:51:39.150Z,95627.41
2023-03-31T03:54:26.368Z,95635.81
2023-03-31T03:57:15.619Z,95637.44
2023-03-31T04:00:01.603Z,95639.03
2023-03-31T04:03:44.257Z,95640.72
2023-03-31T04:06:30.322Z,95636.34
2023-03-31T04:09:16.304Z,95636.34
2023-03-31T04:12:18.256Z,95639.09
2023-03-31T04:15:06.983Z,95638.56
2023-03-31T04:17:54.868Z,95638.56
2023-03-31T04:20:40.861Z,95632.59
2023-03-31T04:23:26.722Z,95637.72
2023-03-31T04:26:14.083Z,95626.69
2023-03-31T04:29:02.707Z,95634.75
2023-03-31T04:32:04.663Z,95628.28
2023-03-31T04:34:50.823Z,95632.06
2023-03-31T04:37:38.946Z,95633.16
2023-03-31T04:40:25.601Z,95633.66
2023-03-31T04:43:11.424Z,95635.56
2023-03-31T04:45:57.248Z,95614.84
2023-03-31T04:48:42.863Z,95620.22
2023-03-31T04:51:29.345Z,95621.59
2023-03-31T04:54:15.539Z,95625.59
2023-03-31T04:57:01.661Z,95630.47
2023-03-31T04:59:47.195Z,95625.88
2023-03-31T05:02:32.803Z,95622.38
2023-03-31T05:05:19.122Z,95620.16
2023-03-31T05:08:05.534Z,95635.75
2023-03-31T05:10:51.635Z,95636.78
2023-03-31T05:13:37.978Z,95625.97
2023-03-31T05:16:29.378Z,95624.94
2023-03-31T05:19:15.134Z,95628.19
2023-03-31T05:22:00.920Z,95626.34
2023-03-31T05:24:47.362Z,95624.19
2023-03-31T05:27:33.289Z,95608.63
2023-03-31T05:30:18.914Z,95609.91
2023-03-31T05:33:04.622Z,95605.53
2023-03-31T05:35:50.575Z,95602.03
2023-03-31T05:38:36.565Z,95615.06
2023-03-31T05:41:22.501Z,95608.53
2023-03-31T05:44:08.620Z,95605.25
2023-03-31T05:46:54.788Z,95605.47
2023-03-31T05:49:42.121Z,95597.06
2023-03-31T05:52:34.261Z,95597.78
2023-03-31T05:55:21.154Z,95593.16
2023-03-31T05:58:09.188Z,95584.00
2023-03-31T06:01:06.707Z,95585.53
2023-03-31T06:03:53.446Z,95600.03
2023-03-31T06:06:39.654Z,95593.25
2023-03-31T06:09:26.341Z,95592.38
2023-03-31T06:12:12.080Z,95600.88
2023-03-31T06:14:58.699Z,95591.91
2023-03-31T06:17:44.813Z,95599.31
2023-03-31T06:20:30.677Z,95597.06
2023-03-31T06:23:16.697Z,95592.63
2023-03-31T06:26:06.517Z,95585.28
2023-03-31T06:28:52.523Z,95580.81
2023-03-31T06:31:38.411Z,95574.84
2023-03-31T06:34:24.224Z,95567.41
2023-03-31T06:37:10.053Z,95563.81
2023-03-31T06:39:58.012Z,95573.34
2023-03-31T06:42:45.322Z,95567.31
2023-03-31T06:45:31.166Z,95572.91
2023-03-31T06:48:16.924Z,95560.38
2023-03-31T06:51:04.910Z,95557.78
2023-03-31T06:53:51.345Z,95550.41
2023-03-31T06:56:37.085Z,95550.03
2023-03-31T06:59:22.819Z,95548.81
2023-03-31T07:02:10.353Z,95553.03
2023-03-31T07:04:56.071Z,95554.53
2023-03-31T07:07:43.281Z,95549.81
2023-03-31T07:10:31.431Z,95551.13
2023-03-31T07:13:18.046Z,95552.63
2023-03-31T07:16:07.250Z,95558.22
2023-03-31T07:18:59.658Z,95573.00
2023-03-31T07:21:45.772Z,95562.59
2023-03-31T07:24:31.773Z,95550.03
2023-03-31T07:27:17.329Z,95538.81
2023-03-31T07:30:17.224Z,95537.78
2023-03-31T07:33:03.036Z,95547.88
2023-03-31T07:35:56.838Z,95542.75
2023-03-31T07:38:57.631Z,95539.34
2023-03-31T07:41:43.473Z,95529.91
2023-03-31T07:44:29.415Z,95530.28
2023-03-31T07:47:15.036Z,95531.66
2023-03-31T07:50:00.876Z,95532.81
2023-03-31T07:52:47.501Z,95536.38
2023-03-31T07:55:33.545Z,95531.66
2023-03-31T07:58:19.254Z,95534.72
2023-03-31T08:01:36.957Z,95531.41
2023-03-31T08:04:30.857Z,95530.16
2023-03-31T08:07:16.909Z,95517.03
2023-03-31T08:10:03.976Z,95519.69
2023-03-31T08:12:55.821Z,95518.63
2023-03-31T08:20:12.962Z,95514.00
2023-03-31T08:23:09.362Z,95510.69
2023-03-31T08:25:54.959Z,95508.97
2023-03-31T08:33:21.755Z,95501.84
2023-03-31T08:36:10.839Z,95498.31
2023-03-31T08:38:56.744Z,95494.16
2023-03-31T08:41:48.253Z,95487.78
2023-03-31T08:44:51.440Z,95471.97
2023-03-31T08:47:38.166Z,95473.50
2023-03-31T08:50:27.695Z,95471.09
2023-03-31T08:53:37.836Z,95466.25
2023-03-31T08:56:24.746Z,95458.66
2023-03-31T08:59:32.637Z,95460.97
2023-03-31T09:02:48.947Z,95456.53
2023-03-31T09:05:59.438Z,95439.66
2023-03-31T09:08:45.819Z,95425.69
2023-03-31T09:11:54.155Z,95416.19
2023-03-31T09:15:01.259Z,95408.50
2023-03-31T09:17:50.039Z,95400.25
2023-03-31T09:20:38.489Z,95401.34
2023-03-31T09:23:44.807Z,95398.41
2023-03-31T09:26:35.074Z,95394.63
2023-03-31T09:29:53.922Z,95390.69
2023-03-31T09:32:40.073Z,95398.56
2023-03-31T09:35:26.738Z,95375.69
2023-03-31T09:38:14.785Z,95373.19
2023-03-31T09:41:02.118Z,95371.94
2023-03-31T09:43:49.565Z,95371.34
2023-03-31T09:46:36.858Z,95359.16
2023-03-31T09:49:26.700Z,95361.63
2023-03-31T09:52:32.276Z,95356.88
2023-03-31T09:55:39.552Z,95344.38
2023-03-31T09:58:27.250Z,95332.53
2023-03-31T10:01:14.571Z,95330.00
2023-03-31T10:04:00.641Z,95328.63
2023-03-31T10:06:47.581Z,95315.44
2023-03-31T10:09:34.408Z,95309.84
2023-03-31T10:12:24.500Z,95298.78
2023-03-31T10:15:20.157Z,95295.81
2023-03-31T10:18:06.289Z,95287.56
2023-03-31T10:20:53.431Z,95288.66
2023-03-31T10:23:39.438Z,95285.88
2023-03-31T10:26:27.596Z,95280.63
2023-03-31T10:29:14.009Z,95272.84
2023-03-31T10:32:12.218Z,95269.72
2023-03-31T10:35:04.264Z,95261.06
2023-03-31T10:37:51.373Z,95262.66
2023-03-31T10:40:37.494Z,95251.75
2023-03-31T10:43:54.153Z,95245.56
2023-03-31T10:46:51.342Z,95238.03
2023-03-31T10:49:40.092Z,95239.06
2023-03-31T10:52:27.502Z,95240.81
2023-03-31T10:55:14.941Z,95227.75
2023-03-31T10:58:27.468Z,95218.66
2023-03-31T11:01:45.661Z,95211.28
2023-03-31T11:04:52.766Z,95205.59
2023-03-31T11:08:15.800Z,95194.22
2023-03-31T11:11:43.895Z,95194.34
2023-03-31T11:15:10.959Z,95176.25
2023-03-31T11:18:34.317Z,95179.31
2023-03-31T11:21:32.215Z,95155.50
2023-03-31T11:24:48.896Z,95171.41
2023-03-31T11:28:08.918Z,95140.94
2023-03-31T11:31:05.993Z,95128.50
2023-03-31T11:34:10.752Z,95125.50
2023-03-31T11:37:08.568Z,95118.03
2023-03-31T11:40:01.159Z,95106.63
2023-03-31T11:42:54.226Z,95112.38
2023-03-31T11:46:13.333Z,95100.81
2023-03-31T11:49:02.888Z,95098.13
2023-03-31T11:52:01.405Z,95081.41
2023-03-31T11:54:55.696Z,95077.44
2023-03-31T11:57:59.534Z,95081.00
2023-03-31T12:00:47.323Z,95048.88
2023-03-31T12:03:52.179Z,95046.41
2023-03-31T12:06:42.645Z,95031.63
2023-03-31T12:09:55.872Z,95031.53
2023-03-31T12:13:10.192Z,95013.19
2023-03-31T12:16:04.907Z,95010.38
2023-03-31T12:19:06.091Z,95007.13
2023-03-31T12:22:00.957Z,95008.94
2023-03-31T12:24:47.111Z,95004.88
2023-03-31T12:27:40.191Z,95009.25
2023-03-31T12:30:39.394Z,94995.94
2023-03-31T12:33:29.011Z,94992.44
2023-03-31T12:36:40.454Z,94988.66
2023-03-31T12:39:53.725Z,94979.84
2023-03-31T12:42:50.910Z,94976.66
2023-03-31T12:45:42.482Z,94967.59
2023-03-31T12:48:34.941Z,94966.66
2023-03-31T12:51:54.579Z,94951.75
2023-03-31T12:55:05.283Z,94954.56
2023-03-31T12:57:51.194Z,94944.97
2023-03-31T13:00:36.837Z,94936.88
2023-03-31T13:03:43.478Z,94935.31
2023-03-31T13:06:29.066Z,94920.72
2023-03-31T13:09:14.820Z,94925.47
2023-03-31T13:12:10.095Z,94916.34
2023-03-31T13:18:19.564Z,94916.72
2023-03-31T13:21:06.505Z,94917.63
2023-03-31T13:23:53.812Z,94919.69
2023-03-31T13:26:49.520Z,94907.13
2023-03-31T13:29:44.423Z,94899.06
2023-03-31T13:32:30.512Z,94883.88
2023-03-31T13:35:21.589Z,94889.78
2023-03-31T13:38:35.510Z,94876.53
2023-03-31T13:41:28.444Z,94870.50
2023-03-31T13:44:39.552Z,94868.94
2023-03-31T13:47:31.490Z,94876.59
2023-03-31T13:50:28.770Z,94875.06
2023-03-31T13:53:20.580Z,94869.28
2023-03-31T13:56:16.666Z,94856.19
2023-03-31T13:59:34.028Z,94860.56
2023-03-31T14:02:40.059Z,94861.28
2023-03-31T14:06:00.217Z,94848.88
2023-03-31T14:08:56.581Z,94846.00
2023-03-31T14:11:42.573Z,94849.41
2023-03-31T14:14:30.225Z,94863.75
2023-03-31T14:17:16.366Z,94849.69
2023-03-31T14:20:19.876Z,94849.53
2023-03-31T14:23:45.553Z,94849.53
2023-03-31T14:26:42.390Z,94851.91
2023-03-31T14:29:51.673Z,94841.75
2023-03-31T14:32:53.205Z,94855.38
2023-03-31T14:35:44.823Z,94852.09
2023-03-31T14:38:33.844Z,94845.56
2023-03-31T14:41:21.204Z,94847.94
2023-03-31T14:44:16.158Z,94836.56
2023-03-31T14:47:02.372Z,94862.19
2023-03-31T14:49:48.704Z,94876.75
2023-03-31T14:52:35.898Z,94854.44
2023-03-31T14:55:35.566Z,94857.84
2023-03-31T14:58:32.448Z,94849.41
2023-03-31T15:01:46.581Z,94841.19
2023-03-31T15:04:46.482Z,94839.13
2023-03-31T15:07:32.292Z,94838.47
2023-03-31T15:10:21.840Z,94845.97
2023-03-31T15:13:21.006Z,94855.78
2023-03-31T15:16:28.978Z,94854.91
2023-03-31T15:19:27.262Z,94848.50
2023-03-31T15:22:18.826Z,94836.22
2023-03-31T15:25:05.050Z,94865.38
2023-03-31T15:27:56.160Z,94842.47
2023-03-31T15:30:42.547Z,94850.88
2023-03-31T15:33:34.052Z,94850.63
2023-03-31T15:36:21.284Z,94848.47
2023-03-31T15:39:07.260Z,94850.97
2023-03-31T15:41:53.712Z,94847.59
2023-03-31T15:44:44.909Z,94863.03
2023-03-31T15:47:33.143Z,94849.47
2023-03-31T15:50:22.191Z,94840.75
2023-03-31T15:53:37.827Z,94839.03
2023-03-31T15:56:43.736Z,94843.59
2023-03-31T15:59:41.521Z,94840.41
2023-03-31T16:02:47.112Z,94840.19
2023-03-31T16:05:54.437Z,94835.25
2023-03-31T16:08:44.896Z,94831.53
2023-03-31T16:11:40.464Z,94828.91
2023-03-31T16:14:36.068Z,94840.81
2023-03-31T16:17:40.448Z,94845.31
2023-03-31T16:20:38.562Z,94840.53
2023-03-31T16:23:35.826Z,94835.72
2023-03-31T16:26:23.651Z,94829.41
2023-03-31T16:29:09.286Z,94832.88
2023-03-31T16:32:18.438Z,94845.63
2023-03-31T16:35:06.069Z,94841.22
2023-03-31T16:37:55.337Z,94839.75
2023-03-31T16:40:46.119Z,94853.78
2023-03-31T16:43:31.984Z,94852.13
2023-03-31T16:46:17.989Z,94847.25
2023-03-31T16:49:03.983Z,94856.56
2023-03-31T16:51:49.611Z,94849.44
2023-03-31T16:54:35.741Z,94857.97
2023-03-31T16:57:21.534Z,94853.63
2023-03-31T17:00:07.854Z,94855.34
2023-03-31T17:02:53.823Z,94857.13
2023-03-31T17:05:42.263Z,94861.28
2023-03-31T17:08:28.228Z,94853.22
2023-03-31T17:11:14.443Z,94859.41
2023-03-31T17:14:00.532Z,94868.63
2023-03-31T17:16:48.577Z,94874.72
2023-03-31T17:19:34.830Z,94872.88
2023-03-31T17:22:20.947Z,94879.59
2023-03-31T17:25:08.229Z,94883.31
2023-03-31T17:27:55.951Z,94884.53
2023-03-31T17:30:44.286Z,94894.38
2023-03-31T17:33:30.196Z,94889.66
2023-03-31T17:36:16.740Z,94893.75
2023-03-31T17:39:05.115Z,94878.66
2023-03-31T17:41:50.905Z,94882.31
2023-03-31T17:44:37.045Z,94883.75
2023-03-31T17:47:22.994Z,94887.16
2023-03-31T17:50:10.033Z,94887.84
2023-03-31T17:52:55.777Z,94892.81
2023-03-31T17:55:41.387Z,94886.88
2023-03-31T17:58:28.269Z,94889.91
2023-03-31T18:01:14.505Z,94890.38
2023-03-31T18:04:00.385Z,94893.09
2023-03-31T18:06:48.609Z,94896.25
2023-03-31T18:09:34.839Z,94895.53
2023-03-31T18:12:20.659Z,94892.81
2023-03-31T18:15:07.281Z,94897.13
2023-03-31T18:17:53.517Z,94893.28
2023-03-31T18:20:40.043Z,94893.63
2023-03-31T18:23:26.147Z,94895.53
2023-03-31T18:26:13.217Z,94894.75
2023-03-31T18:28:59.257Z,94891.28
2023-03-31T18:31:45.118Z,94890.81
2023-03-31T18:34:31.273Z,94893.09
2023-03-31T18:37:17.162Z,94895.81
2023-03-31T18:40:03.750Z,94887.66
2023-03-31T18:42:49.983Z,94897.41
2023-03-31T18:45:38.634Z,94913.25
2023-03-31T18:48:25.200Z,94906.94
2023-03-31T18:51:12.490Z,94893.31
2023-03-31T18:53:58.130Z,94890.59
2023-03-31T18:56:44.060Z,94896.03
2023-03-31T18:59:29.720Z,94882.38
2023-03-31T19:02:18.175Z,94883.16
2023-03-31T19:05:04.427Z,94900.63
2023-03-31T19:07:51.289Z,94901.66
2023-03-31T19:10:37.019Z,94908.13
2023-03-31T19:13:22.733Z,94888.19
2023-03-31T19:16:09.382Z,94886.94
2023-03-31T19:18:55.167Z,94879.84
2023-03-31T19:21:41.874Z,94866.66
2023-03-31T19:24:27.953Z,94859.56
2023-03-31T19:27:14.082Z,94848.59
2023-03-31T19:30:00.044Z,94844.28
2023-03-31T19:32:47.585Z,94858.22
2023-03-31T19:35:33.626Z,94852.34
2023-03-31T19:38:25.535Z,94835.25
2023-03-31T19:41:11.445Z,94841.84
2023-03-31T19:43:57.173Z,94861.66
2023-03-31T19:46:43.134Z,94862.44
2023-03-31T19:49:28.883Z,94857.00
2023-03-31T19:52:14.796Z,94869.44
2023-03-31T19:55:00.948Z,94869.00
2023-03-31T19:57:47.203Z,94863.91
2023-03-31T20:00:33.099Z,94864.25
2023-03-31T20:03:19.842Z,94858.03
2023-03-31T20:06:17.452Z,94863.47
2023-03-31T20:09:06.387Z,94865.38
2023-03-31T20:11:56.653Z,94867.19
2023-03-31T20:14:42.589Z,94852.75
2023-03-31T20:17:29.606Z,94849.91
2023-03-31T20:20:17.376Z,94843.25
2023-03-31T20:23:05.154Z,94844.75
2023-03-31T20:25:51.758Z,94836.47
2023-03-31T20:28:38.542Z,94840.78
2023-03-31T20:31:29.979Z,94833.75
2023-03-31T20:34:22.370Z,94824.47
2023-03-31T20:37:10.626Z,94819.13
2023-03-31T20:39:56.663Z,94810.63
2023-03-31T20:42:43.366Z,94810.91
2023-03-31T20:45:29.448Z,94808.88
2023-03-31T20:48:15.791Z,94814.97
2023-03-31T20:51:02.505Z,94815.69
2023-03-31T20:53:50.424Z,94820.91
2023-03-31T20:56:38.419Z,94820.69
2023-03-31T20:59:24.509Z,94823.66
2023-03-31T21:02:12.470Z,94827.75
2023-03-31T21:04:58.290Z,94832.72
2023-03-31T21:07:43.978Z,94821.84
2023-03-31T21:10:29.630Z,94814.84
2023-03-31T21:13:16.514Z,94811.69
2023-03-31T21:16:04.491Z,94808.53
2023-03-31T21:18:58.703Z,94822.44
2023-03-31T21:21:44.607Z,94827.09
2023-03-31T21:24:30.545Z,94842.66
2023-03-31T21:27:16.592Z,94842.25
2023-03-31T21:30:02.669Z,94832.50
2023-03-31T21:32:48.539Z,94830.25
2023-03-31T21:35:35.082Z,94823.25
2023-03-31T21:38:21.486Z,94824.81
2023-03-31T21:41:12.876Z,94826.38
2023-03-31T21:44:01.735Z,94812.47
2023-03-31T21:46:48.351Z,94821.84
2023-03-31T21:49:34.138Z,94832.72
2023-03-31T21:52:19.799Z,94822.75
2023-03-31T21:55:05.669Z,94820.38
2023-03-31T21:57:51.597Z,94813.81
2023-03-31T22:00:37.457Z,94817.34
2023-03-31T22:03:27.746Z,94830.19
2023-03-31T22:06:13.840Z,94824.78
2023-03-31T22:08:59.481Z,94808.16
2023-03-31T22:11:46.187Z,94807.34
2023-03-31T22:14:31.885Z,94801.50
2023-03-31T22:17:18.273Z,94789.47
2023-03-31T22:20:05.182Z,94783.63
2023-03-31T22:22:51.112Z,94768.25
2023-03-31T22:25:36.876Z,94762.38
2023-03-31T22:28:22.723Z,94765.66
2023-03-31T22:31:08.850Z,94755.41
2023-03-31T22:33:55.503Z,94769.19
2023-03-31T22:36:41.160Z,94751.59
2023-03-31T22:39:26.997Z,94754.19
2023-03-31T22:42:15.286Z,94753.63
2023-03-31T22:45:01.282Z,94753.16
2023-03-31T22:47:47.429Z,94758.59
2023-03-31T22:50:33.453Z,94749.31
2023-03-31T22:53:19.175Z,94757.47
2023-03-31T22:56:11.308Z,94768.66
2023-03-31T22:58:57.986Z,94760.16
2023-03-31T23:01:46.149Z,94762.88
2023-03-31T23:04:32.221Z,94744.56
2023-03-31T23:07:18.237Z,94732.59
2023-03-31T23:10:04.673Z,94735.53
2023-03-31T23:12:51.001Z,94728.50
2023-03-31T23:15:37.079Z,94719.69
2023-03-31T23:18:23.569Z,94717.09
2023-03-31T23:21:09.568Z,94731.88
2023-03-31T23:23:57.540Z,94717.19
2023-03-31T23:26:43.324Z,94704.06
2023-03-31T23:29:30.719Z,94705.66
2023-03-31T23:32:16.380Z,94696.38
2023-03-31T23:35:02.224Z,94689.38
2023-03-31T23:37:51.842Z,94680.09
2023-03-31T23:40:37.737Z,94668.44
2023-03-31T23:43:25.332Z,94680.88
2023-03-31T23:46:12.013Z,94678.69
2023-03-31T23:48:58.111Z,94685.72
2023-03-31T23:51:44.001Z,94670.13
2023-03-31T23:54:29.830Z,94676.44
2023-03-31T23:57:15.960Z,94667.16
